Weather at Bell South Airfield Heliport

Public forecast

Using degrees Fahrenheit for public forecast. Weather courtesy of forecast.io.

Closest aviation weather report (METAR) to Bell South Airfield Heliport

Closest report is Grand Prairie Municipal Airport, 7.7 nm (14.3 km) SE.

2024/05/29 11:50 (retrieved 47 minutes ago)

KGPM 291150Z 00000KT 10SM SKC 21/18 A3011

Closest aviation forecast (TAF) to Bell South Airfield Heliport

Closest forecast is Dallas Fort Worth International Airport, 8.1 nm (15.0 km) NE.

2024/05/29 12:39 (retrieved 0 seconds ago)

TAF KDFW 291137Z 2912/3018 08009KT P6SM VCSH FEW015 BKN120 FM291400 12008KT P6SM BKN060 FM300400 13006KT P6SM VCSH BKN025 FM301600 11007KT 6SM BR VCTS OVC017CB